Aérodrome :
LOGIN :

S'inscrire | Disclaimer

   EN    FR    IT 

 










Légende :    VFR   VFR Marginal   IFR   IFR Intensif   IFR Très Intensif
Visi : 
Plafond : 
>= 8 km
>= 3000ft
5 à 8 km
1000 à 3000 ft
1500m à 5 km
500 à 1000 ft
800 à 1500m
200 à 500 ft
< 800m
< 200 ft
Symboles :   Orages  Brouillard  Fortes neiges  Fortes précipitations  Vent > 20 kt
SIGMETs :   Divers  Orages  Givrage  Turbulence  Onde Orograph.  Cendres Volcan.







- Altitude de l'aérodrome : 776 ft
- Code IATA : RMS


ETAR - Ramstein Air Base

DERNIER METAR :
  • 261557Z 25012KT 9999 FEW060 14/02 A3007 RMK AO2A SLPNO T01400016 $

METARs EXPIRÉS :
  • 261456Z AUTO 29011KT 9999 FEW055 SCT075 14/01 A3007 RMK AO2 SLP189 T01440013 55006 $
  • 261444Z AUTO 27013KT 9999 FEW055 15/01 A3008 RMK AO2 WSHFT 35 SLP191 $

TAF AMD TAF ETAR
Valide du 26 à 16h jusqu'au 27 à 16h UTC


261650Z 2616/2716 26012G20KT 9999 SCT040 QNH3010INS
BECMG 2618/2619 26009KT 9999 FEW090 QNH3009INS
BECMG 2702/2703 VRB06KT 5000 BR SCT050 QNH3003INS
BECMG 2706/2707 VRB06KT 9999 NSW FEW060 QNH3000INS
BECMG 2709/2710 26009KT 9999 FEW060 QNH2994INS TX18/2616Z TN06/2704Z
Pas de NOTAMs connus pour ce terrain.



MET'MAP, la Météo Aéronautique d'un coup d'oeil ! - Copyright ORBIFLY Décembre 2007 - Disclaimer

ORBIFLY MET'MAP TEAM :

Programmation & Développement : Alexandra Zaïnal
Conception & Développement : Baudouin d'Aumeries
Co-Programmation & Développement : Marc-Olivier Méhu
Soutien technique & logistique : Manuel Goepfert

Contact : metmap@orbifly.com




SOURCES & CREDITS :

   NOAA